Pocono Lake, PA (18347)

4:23 AM EDT on April 21, 2015 (GMT -0400)
Arrowhead Lake | | Change Station
CLOSE
Current Station
Personal Weather Station
Location: Pocono Lake, PA
Elevation: 1699 ft
Nearby Weather Stations

Elev 1699 ft 41.15 °N, 75.56 °W | Updated 23 minutes ago

Rain
Rain
49.8 °F
Feels Like 50 °F
N
0.0
Wind Variable Wind from SSW
Gusts 0.0 mph

Today
High -- | Low -- °F
--% Chance of Precip.
Yesterday
High -- | Low -- °F
Precip. -- in
6:14 AM 7:48 PM
Waxing Crescent, 9% visible
Pressure 29.56 in
Visibility 0.2 miles
Clouds Mostly Cloudy 100 ft
Overcast 7500 ft
Windchill 50 °F
Dew Point 48 °F
Humidity 95%
Rainfall 0.09 in
Snow Depth Not available.
UV 0 out of 12
Pollen 1.10 out of 12
Air Quality Not available.
Flu Activity Sporadic
SPECI KMPO 210800Z AUTO 17005KT 1/4SM FG BKN001 OVC075 10/09 A2956 RMK AO2 T01000094 $

More Conditions Fewer Conditions

Pressure 29.56 in
Visibility 0.2 miles
Clouds Mostly Cloudy 100 ft
Overcast 7500 ft
Windchill 50 °F
Dew Point 48 °F
Humidity 95%
Rainfall 0.09 in
Snow Depth Not available.
UV 0 out of 12
Pollen 1.10 out of 12
Air Quality Not available.
Flu Activity Sporadic
SPECI KMPO 210800Z AUTO 17005KT 1/4SM FG BKN001 OVC075 10/09 A2956 RMK AO2 T01000094 $

More Conditions Fewer Conditions

10-Day Weather Forecast

Almanac

Astronomy

Apr. 21, 2015 Rise Set
Actual Time
Civil Twilight
Nautical Twilight
Astronomical Twilight
Moon
Length of Visible Light
Length of Day
Tomorrow will be .
, % of the Moon is Illuminated

Today's Extremes

State Highs State Lows

Community

WunderPhotos

Upload Photos

1,815,327 photos uploaded!

WunderBlogs® & News

Nearby

Air Quality

  Air Quality AQ Index Pollutant
Not available.

Snow Depth

Station Depth Elevation

Earthquake Activity

City Distance Mag. Time & Date
Minimum magnitude displayed is 2.5.

Coastal Water Temperatures

Place Temperature

Stations

Nearby Weather Stations

Station Location Temp. Windchill Dew Point Humidity Wind Precip. Elev Updated Type